Time;durP1;ratioP1;P1;durP2;ratioP2;P2;SDS_P1;SDS_P2;PMS_P1;PMS_P2;Temp;Humidity;BMP_temperature;BMP_pressure;BME280_temperature;BME280_humidity;BME280_pressure;Samples;Min_cycle;Max_cycle;Signal;HPM_P1;HPM_P2
2022/11/23 00:02:08;;;;;;;40.67;23.40;;;7.90;99.90;;;;;;10332961;28;20757;-82
2022/11/23 00:07:10;;;;;;;76.43;41.03;;;8.40;99.90;;;;;;10334172;28;20244;-82
2022/11/23 00:12:13;;;;;;;43.77;26.07;;;7.80;99.90;;;;;;10333361;28;20640;-83
2022/11/23 00:17:15;;;;;;;41.97;23.07;;;8.00;99.90;;;;;;10333006;28;20322;-82
2022/11/23 00:22:35;;;;;;;46.00;24.93;;;7.80;99.90;;;;;;10333266;28;20575;-82
2022/11/23 00:27:38;;;;;;;45.57;25.93;;;8.20;99.90;;;;;;10332993;28;20233;-82
2022/11/23 00:32:40;;;;;;;46.73;24.67;;;8.40;99.90;;;;;;10329857;28;20817;-82
2022/11/23 00:37:43;;;;;;;44.03;25.30;;;8.40;99.90;;;;;;10332564;28;20234;-82
2022/11/23 00:42:45;;;;;;;53.73;30.23;;;8.00;99.90;;;;;;10332402;28;20236;-82
2022/11/23 00:47:48;;;;;;;56.20;31.10;;;8.10;99.90;;;;;;10330069;28;20625;-82
2022/11/23 00:52:50;;;;;;;42.47;23.00;;;8.50;99.90;;;;;;10331988;28;20638;-83
2022/11/23 00:57:52;;;;;;;31.20;16.53;;;8.80;99.90;;;;;;10330494;28;20259;-82
2022/11/23 01:02:55;;;;;;;42.83;24.07;;;9.10;99.90;;;;;;10331133;28;20687;-82
2022/11/23 01:07:57;;;;;;;55.40;28.90;;;8.50;99.90;;;;;;10330649;28;20301;-82
2022/11/23 01:13:00;;;;;;;49.87;27.03;;;8.00;99.90;;;;;;10329522;28;20263;-83
2022/11/23 01:18:02;;;;;;;39.80;23.93;;;8.20;99.90;;;;;;10329084;28;20261;-83
2022/11/23 01:23:06;;;;;;;34.23;21.00;;;8.40;99.90;;;;;;10361657;28;20624;-82
2022/11/23 01:28:08;;;;;;;56.67;28.83;;;8.30;99.90;;;;;;10329575;28;20221;-82
2022/11/23 01:33:11;;;;;;;53.33;27.33;;;8.30;99.90;;;;;;10329360;28;20268;-83
2022/11/23 01:38:13;;;;;;;60.27;30.93;;;8.30;99.90;;;;;;10329003;28;20208;-82
2022/11/23 01:43:19;;;;;;;52.80;27.40;;;8.50;99.90;;;;;;10313209;28;20212;-83
2022/11/23 01:48:36;;;;;;;69.40;30.37;;;8.40;99.90;;;;;;10331777;28;20201;-82
2022/11/23 01:53:40;;;;;;;74.80;36.03;;;7.70;99.90;;;;;;10313196;28;20731;-82
2022/11/23 01:58:47;;;;;;;48.20;26.80;;;7.90;99.90;;;;;;10312529;28;20216;-83
2022/11/23 02:03:52;;;;;;;39.90;22.97;;;7.50;99.90;;;;;;10328051;28;20236;-82
2022/11/23 02:08:55;;;;;;;51.33;29.93;;;7.80;99.90;;;;;;10330827;28;20644;-82
2022/11/23 02:13:59;;;;;;;47.90;24.47;;;7.50;99.90;;;;;;10325987;28;20255;-82
2022/11/23 02:19:11;;;;;;;45.17;26.03;;;7.50;99.90;;;;;;10325718;28;20248;-82
2022/11/23 02:24:24;;;;;;;39.80;23.13;;;8.10;99.90;;;;;;10326984;28;20232;-82
2022/11/23 02:29:28;;;;;;;43.53;27.30;;;8.60;99.90;;;;;;10342906;28;20652;-82
2022/11/23 02:34:35;;;;;;;44.90;25.13;;;8.20;99.90;;;;;;10325851;28;20270;-82
2022/11/23 02:39:44;;;;;;;51.83;27.77;;;8.10;99.90;;;;;;10310440;28;20257;-82
2022/11/23 02:44:55;;;;;;;42.60;22.77;;;7.70;99.90;;;;;;10309588;28;20217;-82
2022/11/23 02:49:58;;;;;;;51.57;29.03;;;7.70;99.90;;;;;;10324160;28;20244;-82
2022/11/23 02:55:00;;;;;;;59.23;31.57;;;7.00;99.90;;;;;;10331468;28;20310;-82
2022/11/23 03:00:04;;;;;;;54.27;29.03;;;6.80;99.90;;;;;;10320515;28;20244;-82
2022/11/23 03:05:08;;;;;;;56.00;30.03;;;6.70;99.90;;;;;;10323544;28;20232;-82
2022/11/23 03:10:10;;;;;;;61.20;35.67;;;6.60;99.90;;;;;;10324164;28;20240;-82
2022/11/23 03:15:13;;;;;;;48.10;28.57;;;6.50;99.90;;;;;;10330917;28;20291;-82
2022/11/23 03:20:16;;;;;;;38.83;23.17;;;7.00;99.90;;;;;;10330739;28;20255;-82
2022/11/23 03:25:23;;;;;;;43.43;23.80;;;7.30;99.90;;;;;;10332879;28;20259;-83
2022/11/23 03:30:30;;;;;;;37.87;22.37;;;7.40;99.90;;;;;;10324660;28;20333;-82
2022/11/23 03:35:33;;;;;;;35.73;19.50;;;7.20;99.90;;;;;;10325022;28;20255;-82
2022/11/23 03:41:05;;;;;;;36.30;20.77;;;7.30;99.90;;;;;;10347461;28;20264;-83
2022/11/23 03:46:18;;;;;;;42.47;24.20;;;7.80;99.90;;;;;;10310827;28;20274;-83
2022/11/23 03:51:21;;;;;;;34.97;21.17;;;8.20;99.90;;;;;;10325480;28;20264;-83
2022/11/23 03:56:24;;;;;;;47.73;25.57;;;8.00;99.90;;;;;;10332127;28;20300;-83
2022/11/23 04:01:27;;;;;;;43.70;22.17;;;8.20;99.90;;;;;;10349578;28;20259;-83
2022/11/23 04:06:35;;;;;;;36.73;19.30;;;8.40;99.90;;;;;;10352801;28;20275;-83
2022/11/23 04:11:50;;;;;;;58.27;32.50;;;8.40;99.90;;;;;;10345294;28;20259;-83
2022/11/23 04:16:53;;;;;;;44.73;23.87;;;8.70;99.90;;;;;;10363812;28;20264;-83
2022/11/23 04:21:57;;;;;;;63.60;35.37;;;9.00;99.90;;;;;;10333156;28;20640;-83
2022/11/23 04:27:01;;;;;;;45.70;22.87;;;8.70;99.90;;;;;;10331082;28;20721;-83
2022/11/23 04:32:04;;;;;;;67.43;33.53;;;8.50;99.90;;;;;;10331044;28;20263;-83
2022/11/23 04:37:07;;;;;;;45.30;22.73;;;8.30;99.90;;;;;;10315486;28;20228;-83
2022/11/23 04:42:15;;;;;;;44.83;24.73;;;8.30;99.90;;;;;;10346103;28;20236;-83
2022/11/23 04:47:24;;;;;;;63.77;33.20;;;8.40;99.90;;;;;;10330528;28;20216;-83
2022/11/23 04:52:27;;;;;;;44.67;26.10;;;8.10;99.90;;;;;;10329977;28;20256;-82
2022/11/23 04:57:30;;;;;;;54.13;29.90;;;8.10;99.90;;;;;;10330231;28;20262;-83
2022/11/23 05:02:33;;;;;;;40.03;22.67;;;8.10;99.90;;;;;;10314181;28;20266;-83
2022/11/23 05:07:49;;;;;;;36.57;19.73;;;7.70;99.90;;;;;;10329935;28;20698;-83
2022/11/23 05:12:54;;;;;;;40.90;22.13;;;8.30;99.90;;;;;;10330497;28;20306;-83
2022/11/23 05:18:01;;;;;;;34.10;19.13;;;8.30;99.90;;;;;;10330495;28;20259;-83
2022/11/23 05:23:05;;;;;;;44.90;23.50;;;8.30;99.90;;;;;;10347429;28;20259;-83
2022/11/23 05:28:15;;;;;;;33.53;19.10;;;8.30;99.90;;;;;;10329294;28;20205;-83
2022/11/23 05:33:38;;;;;;;43.37;22.37;;;8.20;99.90;;;;;;10342442;28;20260;-83
2022/11/23 05:38:43;;;;;;;41.37;21.27;;;8.30;99.90;;;;;;10328874;28;20255;-83
2022/11/23 05:43:55;;;;;;;30.63;17.77;;;8.20;99.90;;;;;;10327664;28;20232;-82
2022/11/23 05:49:02;;;;;;;32.93;19.87;;;8.60;99.90;;;;;;10312632;28;20240;-83
2022/11/23 05:54:09;;;;;;;35.70;21.97;;;8.70;99.90;;;;;;10345749;28;20263;-83
2022/11/23 05:59:16;;;;;;;50.67;27.20;;;8.90;99.90;;;;;;10360325;28;20261;-83
2022/11/23 06:04:24;;;;;;;42.53;20.80;;;8.40;99.90;;;;;;10358635;28;20221;-82
2022/11/23 06:09:27;;;;;;;35.77;19.73;;;8.40;99.90;;;;;;10315591;28;20638;-83
2022/11/23 06:14:35;;;;;;;42.73;22.87;;;8.00;99.90;;;;;;10359342;28;20713;-82
2022/11/23 06:19:38;;;;;;;37.50;19.37;;;8.10;99.90;;;;;;10328369;28;20275;-83
2022/11/23 06:24:41;;;;;;;39.77;21.27;;;8.30;99.90;;;;;;10327504;28;20240;-83
2022/11/23 06:30:07;;;;;;;35.17;18.87;;;8.40;99.90;;;;;;10210644;28;20239;-83
2022/11/23 06:35:11;;;;;;;38.83;19.93;;;8.20;99.90;;;;;;10179531;29;20290;-83
2022/11/23 06:40:16;;;;;;;45.70;23.87;;;7.80;99.90;;;;;;10179555;29;20701;-83
2022/11/23 06:45:19;;;;;;;42.30;21.30;;;8.30;99.90;;;;;;10179459;29;20346;-82
2022/11/23 06:50:25;;;;;;;38.97;21.50;;;8.30;99.90;;;;;;10163735;29;20263;-82
2022/11/23 06:55:28;;;;;;;40.50;21.57;;;8.30;99.90;;;;;;10178950;29;20247;-82
2022/11/23 07:00:32;;;;;;;39.97;20.50;;;8.20;99.90;;;;;;10163408;29;20700;-82
2022/11/23 07:05:37;;;;;;;44.27;23.67;;;8.50;99.90;;;;;;10250421;28;20225;-83
2022/11/23 07:10:41;;;;;;;58.67;28.27;;;8.30;99.90;;;;;;10325817;28;20203;-82
2022/11/23 07:15:47;;;;;;;51.10;25.93;;;8.10;99.90;;;;;;10325958;28;20243;-82
2022/11/23 07:20:52;;;;;;;38.70;21.23;;;7.70;99.90;;;;;;10309991;28;20259;-82
2022/11/23 07:25:55;;;;;;;47.87;23.50;;;8.00;99.90;;;;;;10324528;28;20610;-83
2022/11/23 07:30:58;;;;;;;37.40;18.80;;;7.90;99.90;;;;;;10325470;28;20236;-83
2022/11/23 07:36:01;;;;;;;41.47;22.03;;;8.20;99.90;;;;;;10326972;28;20222;-83
2022/11/23 07:41:05;;;;;;;47.73;24.40;;;8.30;99.90;;;;;;10328280;28;20212;-82
2022/11/23 07:46:28;;;;;;;40.63;20.70;;;8.80;99.90;;;;;;10334543;28;20625;-83
2022/11/23 07:51:31;;;;;;;41.53;21.93;;;8.50;99.90;;;;;;10332693;28;20705;-83
2022/11/23 07:56:33;;;;;;;47.53;23.63;;;8.30;99.90;;;;;;10333446;28;20232;-83
2022/11/23 08:01:36;;;;;;;38.43;20.80;;;8.00;99.90;;;;;;10333027;28;20282;-83
2022/11/23 08:06:38;;;;;;;38.57;20.57;;;8.40;99.90;;;;;;10334121;28;20623;-83
2022/11/23 08:11:41;;;;;;;44.20;22.57;;;8.60;99.90;;;;;;10317006;28;20325;-83
2022/11/23 08:16:48;;;;;;;30.37;16.13;;;8.20;99.90;;;;;;10333018;28;20255;-83
2022/11/23 08:21:51;;;;;;;37.23;20.57;;;8.30;99.90;;;;;;10363806;28;20244;-83
2022/11/23 08:26:53;;;;;;;28.97;15.67;;;8.40;99.90;;;;;;10315708;28;20676;-83
2022/11/23 08:31:56;;;;;;;36.40;20.00;;;8.90;99.90;;;;;;10317011;28;20638;-83
2022/11/23 08:36:58;;;;;;;49.97;25.43;;;9.00;99.90;;;;;;10332829;28;20233;-83
2022/11/23 08:42:01;;;;;;;37.60;20.37;;;9.10;99.90;;;;;;10325583;28;20223;-83
2022/11/23 08:47:03;;;;;;;42.90;24.03;;;9.10;99.90;;;;;;10301682;28;20390;-83
2022/11/23 08:52:05;;;;;;;35.87;17.20;;;9.00;99.90;;;;;;10331358;28;20255;-83
2022/11/23 08:57:08;;;;;;;26.90;14.77;;;9.50;99.90;;;;;;10330938;28;20224;-83
2022/11/23 09:02:14;;;;;;;37.60;20.37;;;9.20;99.90;;;;;;10331446;28;20695;-83
2022/11/23 09:07:16;;;;;;;36.17;19.87;;;9.30;99.90;;;;;;10332007;28;20254;-83
2022/11/23 09:12:19;;;;;;;45.87;23.07;;;9.30;99.90;;;;;;10331838;28;20279;-83
2022/11/23 09:17:21;;;;;;;45.73;27.20;;;8.80;99.90;;;;;;10329757;28;20240;-84
2022/11/23 09:22:23;;;;;;;63.03;31.10;;;9.00;99.90;;;;;;10328914;28;20317;-84
2022/11/23 09:27:26;;;;;;;51.07;25.63;;;9.00;99.90;;;;;;9979248;28;9999860;-83
2022/11/23 09:32:28;;;;;;;39.57;20.83;;;8.20;99.90;;;;;;10325919;28;20328;-83
2022/11/23 09:37:31;;;;;;;34.57;18.83;;;8.60;99.90;;;;;;10325917;28;20283;-83
2022/11/23 09:42:42;;;;;;;39.13;20.23;;;8.90;99.90;;;;;;10328893;28;20233;-83
2022/11/23 09:48:00;;;;;;;62.67;32.43;;;9.10;99.90;;;;;;10325716;28;20244;-83
2022/11/23 09:53:09;;;;;;;59.13;31.20;;;8.60;99.90;;;;;;10327086;28;20869;-83
2022/11/23 09:58:19;;;;;;;67.67;36.97;;;8.40;99.90;;;;;;10324624;28;20656;-83
2022/11/23 10:03:21;;;;;;;44.23;22.90;;;8.70;99.90;;;;;;10325199;28;20239;-83
2022/11/23 10:08:46;;;;;;;62.37;35.47;;;8.80;99.90;;;;;;10326633;28;20236;-84
2022/11/23 10:14:03;;;;;;;42.70;23.27;;;8.80;99.90;;;;;;10325238;28;20244;-83
2022/11/23 10:19:44;;;;;;;51.53;29.23;;;9.30;99.90;;;;;;10357708;28;20267;-84
2022/11/23 10:24:50;;;;;;;37.30;21.97;;;8.50;99.90;;;;;;10326381;28;20297;-84
2022/11/23 10:29:55;;;;;;;65.13;35.23;;;8.50;99.90;;;;;;10325196;28;20305;-84
2022/11/23 10:35:10;;;;;;;43.60;23.10;;;8.10;99.90;;;;;;10325599;28;20320;-83
2022/11/23 10:40:25;;;;;;;59.50;28.07;;;8.40;99.90;;;;;;10323151;28;20227;-84
2022/11/23 10:45:28;;;;;;;61.20;34.17;;;8.40;99.90;;;;;;10323208;28;20243;-83
2022/11/23 10:50:36;;;;;;;41.70;24.07;;;8.20;99.90;;;;;;10339272;28;20295;-84
2022/11/23 10:55:58;;;;;;;52.23;27.53;;;8.40;99.90;;;;;;10324437;28;20278;-84
2022/11/23 11:01:05;;;;;;;48.20;26.93;;;8.30;99.90;;;;;;10322611;28;20255;-83
2022/11/23 11:06:08;;;;;;;48.77;24.97;;;8.80;99.90;;;;;;10324039;28;20232;-84
2022/11/23 11:11:28;;;;;;;40.23;22.93;;;8.90;99.90;;;;;;10324303;28;20236;-84
2022/11/23 11:16:36;;;;;;;47.90;26.73;;;9.00;99.90;;;;;;10327408;28;20264;-84
2022/11/23 11:21:40;;;;;;;45.17;24.80;;;8.80;99.90;;;;;;10347472;28;20749;-84
2022/11/23 11:26:58;;;;;;;47.17;26.17;;;9.30;99.90;;;;;;10332721;28;20223;-84
2022/11/23 11:32:24;;;;;;;47.93;23.83;;;9.10;99.90;;;;;;10330388;28;20263;-84
2022/11/23 11:37:41;;;;;;;52.13;27.47;;;9.30;99.90;;;;;;10331984;28;20255;-84
2022/11/23 11:43:31;;;;;;;65.77;41.03;;;8.80;99.90;;;;;;10334058;28;20692;-85
2022/11/23 11:48:56;;;;;;;52.17;30.20;;;9.00;99.90;;;;;;10331884;28;20284;-84
2022/11/23 11:54:11;;;;;;;57.00;33.80;;;8.90;99.90;;;;;;10332711;28;20240;-84
2022/11/23 11:59:43;;;;;;;64.73;35.80;;;8.80;99.90;;;;;;10334111;28;20257;-85
2022/11/23 12:05:04;;;;;;;43.10;23.53;;;8.20;99.90;;;;;;10332654;28;20579;-85
2022/11/23 12:10:28;;;;;;;40.70;25.10;;;9.00;99.90;;;;;;10333606;28;20270;-84
2022/11/23 12:15:41;;;;;;;47.00;26.93;;;9.10;99.90;;;;;;10332355;28;20712;-84
2022/11/23 12:21:13;;;;;;;57.20;30.33;;;8.70;99.90;;;;;;10333276;28;20231;-84
2022/11/23 12:26:46;;;;;;;49.10;27.17;;;8.60;99.90;;;;;;10331488;28;20755;-84
2022/11/23 12:31:56;;;;;;;38.93;19.87;;;8.60;99.90;;;;;;10332713;28;20278;-85
2022/11/23 12:37:30;;;;;;;54.13;30.40;;;8.20;99.90;;;;;;10332684;28;20232;-85
2022/11/23 12:42:54;;;;;;;60.23;33.97;;;8.10;99.90;;;;;;10330474;28;20270;-84
2022/11/23 12:48:15;;;;;;;56.27;28.63;;;8.40;99.90;;;;;;10336295;28;20235;-84
2022/11/23 12:53:35;;;;;;;44.23;23.50;;;8.30;99.90;;;;;;10331129;28;20321;-84
2022/11/23 12:58:39;;;;;;;43.60;24.60;;;8.40;99.90;;;;;;10330500;28;20764;-83
2022/11/23 13:04:32;;;;;;;42.37;23.07;;;8.40;99.90;;;;;;10330803;28;20634;-84
2022/11/23 13:10:10;;;;;;;44.13;25.07;;;8.80;99.90;;;;;;10289232;28;20236;-84
2022/11/23 13:15:32;;;;;;;49.73;26.70;;;8.90;99.90;;;;;;10361715;28;20256;-84
2022/11/23 13:20:56;;;;;;;60.40;31.90;;;9.20;99.90;;;;;;10320783;28;20305;-84
2022/11/23 13:26:12;;;;;;;51.90;27.57;;;8.90;99.90;;;;;;10291508;28;20240;-84
2022/11/23 13:31:15;;;;;;;51.63;27.83;;;8.50;99.90;;;;;;10328964;28;20220;-84
2022/11/23 13:36:37;;;;;;;57.37;29.60;;;8.50;99.90;;;;;;10335448;28;20259;-84
2022/11/23 13:42:00;;;;;;;57.50;30.97;;;8.10;99.90;;;;;;10295254;28;20673;-84
2022/11/23 13:47:23;;;;;;;76.83;39.33;;;8.80;99.90;;;;;;10346017;28;20278;-84
2022/11/23 13:52:29;;;;;;;72.40;37.03;;;8.10;99.90;;;;;;10327948;28;20240;-84
2022/11/23 13:57:31;;;;;;;61.53;31.37;;;7.80;99.90;;;;;;10327963;28;20262;-84
2022/11/23 14:02:34;;;;;;;52.40;25.97;;;7.90;99.90;;;;;;10360912;28;20744;-84
2022/11/23 14:07:42;;;;;;;38.53;21.40;;;8.50;99.90;;;;;;10330162;28;20238;-84
2022/11/23 14:13:24;;;;;;;49.20;26.30;;;8.30;99.90;;;;;;10327215;28;20710;-84
2022/11/23 14:18:54;;;;;;;51.97;28.93;;;8.30;99.90;;;;;;10327388;28;20244;-84
2022/11/23 14:24:31;;;;;;;61.93;31.47;;;8.10;99.90;;;;;;10332354;28;20278;-84
2022/11/23 14:30:05;;;;;;;47.20;24.37;;;8.00;99.90;;;;;;10335270;28;20939;-84
2022/11/23 14:35:25;;;;;;;37.90;22.00;;;8.20;99.90;;;;;;10325448;28;20325;-84
2022/11/23 14:40:53;;;;;;;45.07;23.93;;;8.40;99.90;;;;;;10328715;28;20595;-84
2022/11/23 14:46:05;;;;;;;35.90;18.80;;;8.60;99.90;;;;;;10326923;28;20228;-84
2022/11/23 14:51:17;;;;;;;45.87;24.33;;;8.70;99.90;;;;;;10327110;28;20658;-84
2022/11/23 14:56:31;;;;;;;38.83;22.60;;;8.30;99.90;;;;;;10287362;28;20256;-84
2022/11/23 15:01:34;;;;;;;41.03;22.57;;;9.10;99.90;;;;;;10313846;28;20217;-84
2022/11/23 15:06:43;;;;;;;52.03;27.70;;;8.80;99.90;;;;;;10327217;28;20220;-84
2022/11/23 15:11:48;;;;;;;42.30;24.50;;;8.90;99.90;;;;;;10327344;28;20629;-84
2022/11/23 15:16:50;;;;;;;95.43;43.50;;;8.90;99.90;;;;;;10325051;28;20319;-84
2022/11/23 15:21:54;;;;;;;35.83;20.73;;;8.60;99.90;;;;;;10326221;28;20207;-84
2022/11/23 15:27:04;;;;;;;107.80;51.00;;;9.10;99.90;;;;;;10327718;28;20266;-84
2022/11/23 15:32:38;;;;;;;67.57;33.17;;;8.50;99.90;;;;;;10327391;28;20616;-84
2022/11/23 15:37:46;;;;;;;43.00;26.17;;;8.40;99.90;;;;;;10327604;28;20608;-84
2022/11/23 15:42:50;;;;;;;49.50;29.20;;;8.60;99.90;;;;;;10326165;28;20666;-84
2022/11/23 15:47:52;;;;;;;51.07;30.57;;;8.70;99.90;;;;;;10326928;28;20260;-84
2022/11/23 15:52:57;;;;;;;123.00;87.73;;;8.50;99.90;;;;;;10325940;28;20280;-84
2022/11/23 15:58:06;;;;;;;79.17;42.40;;;8.50;99.90;;;;;;10327155;28;20228;-84
2022/11/23 16:03:30;;;;;;;102.53;59.63;;;8.50;99.90;;;;;;10330834;28;20653;-84
2022/11/23 16:08:34;;;;;;;65.23;36.30;;;8.30;99.90;;;;;;10333175;28;20228;-84
2022/11/23 16:13:38;;;;;;;62.03;35.67;;;8.00;99.90;;;;;;10334129;28;20709;-84
2022/11/23 16:18:45;;;;;;;67.13;36.80;;;8.50;99.90;;;;;;10332244;28;20267;-84
2022/11/23 16:23:53;;;;;;;75.33;39.47;;;8.10;99.90;;;;;;10334423;28;20208;-84
2022/11/23 16:28:57;;;;;;;51.90;29.47;;;7.70;99.90;;;;;;10334336;28;20686;-83
2022/11/23 16:34:00;;;;;;;65.10;34.30;;;7.50;99.90;;;;;;10333142;28;20781;-84
2022/11/23 16:39:03;;;;;;;54.23;28.83;;;7.90;99.90;;;;;;10332641;28;20659;-84
2022/11/23 16:44:07;;;;;;;51.77;26.23;;;8.30;99.90;;;;;;10333467;28;20606;-84
2022/11/23 16:49:22;;;;;;;59.70;30.57;;;8.80;99.90;;;;;;10331406;28;20212;-84
2022/11/23 16:54:24;;;;;;;55.20;29.27;;;8.30;99.90;;;;;;10332540;28;20637;-84
2022/11/23 16:59:27;;;;;;;64.27;31.73;;;8.10;99.90;;;;;;10331763;28;20252;-84
2022/11/23 17:04:29;;;;;;;39.33;23.33;;;7.30;99.90;;;;;;10332248;28;20239;-84
2022/11/23 17:09:32;;;;;;;45.73;27.10;;;8.20;99.90;;;;;;10332043;28;20232;-84
2022/11/23 17:14:38;;;;;;;48.17;25.93;;;8.60;99.90;;;;;;10331212;28;20503;-84
2022/11/23 17:19:40;;;;;;;45.63;25.17;;;8.90;99.90;;;;;;10330146;28;20229;-84
2022/11/23 17:24:43;;;;;;;66.80;34.80;;;8.70;99.90;;;;;;10331540;28;20251;-84
2022/11/23 17:29:49;;;;;;;42.63;24.73;;;8.30;99.90;;;;;;10331349;28;20641;-84
2022/11/23 17:34:52;;;;;;;41.83;21.87;;;8.30;99.90;;;;;;10330003;28;20277;-84
2022/11/23 17:39:54;;;;;;;43.60;23.70;;;8.60;99.90;;;;;;10329213;28;20241;-84
2022/11/23 17:44:57;;;;;;;48.20;24.63;;;8.50;99.90;;;;;;10328196;28;20302;-84
2022/11/23 17:49:59;;;;;;;52.70;26.87;;;8.80;99.90;;;;;;10319905;28;20283;-84
2022/11/23 17:55:02;;;;;;;66.73;33.43;;;9.20;99.90;;;;;;10327194;28;20295;-84
2022/11/23 18:00:21;;;;;;;50.80;27.77;;;8.80;99.90;;;;;;10329867;28;20255;-84
2022/11/23 18:05:23;;;;;;;48.87;27.63;;;8.70;99.90;;;;;;10328583;28;20685;-84
2022/11/23 18:10:26;;;;;;;50.73;26.43;;;8.70;99.90;;;;;;10311935;28;20716;-84
2022/11/23 18:15:29;;;;;;;40.93;23.67;;;8.40;99.90;;;;;;10329295;28;20980;-84
2022/11/23 18:20:31;;;;;;;56.87;30.10;;;8.20;99.90;;;;;;10359959;28;20257;-84
2022/11/23 18:25:34;;;;;;;54.63;29.73;;;7.80;99.90;;;;;;10329393;28;20240;-84
2022/11/23 18:30:37;;;;;;;33.43;20.20;;;7.50;99.90;;;;;;10301348;28;20615;-84
2022/11/23 18:35:40;;;;;;;35.00;21.77;;;7.90;99.90;;;;;;10320311;28;20253;-84
2022/11/23 18:40:42;;;;;;;39.83;23.90;;;8.30;99.90;;;;;;10322723;28;20221;-84
2022/11/23 18:45:45;;;;;;;47.03;27.07;;;8.40;99.90;;;;;;10319475;28;20628;-84
2022/11/23 18:50:48;;;;;;;52.00;31.23;;;8.50;99.90;;;;;;10288184;28;20263;-84
2022/11/23 18:55:51;;;;;;;66.47;39.67;;;8.20;99.90;;;;;;10322084;28;20646;-83
2022/11/23 19:01:11;;;;;;;53.57;30.30;;;7.70;99.90;;;;;;10328137;28;20272;-84
2022/11/23 19:06:16;;;;;;;60.83;36.47;;;7.10;99.90;;;;;;10328206;28;20621;-83
2022/11/23 19:11:26;;;;;;;55.53;32.37;;;6.20;99.90;;;;;;10327633;28;20233;-84
2022/11/23 19:16:30;;;;;;;42.50;23.80;;;7.00;99.90;;;;;;10327458;28;20322;-84
2022/11/23 19:21:34;;;;;;;43.37;25.07;;;7.40;99.90;;;;;;10327491;28;20254;-84
2022/11/23 19:26:37;;;;;;;41.33;23.63;;;7.70;99.90;;;;;;10326363;28;20653;-84
2022/11/23 19:31:39;;;;;;;32.40;20.43;;;8.00;99.90;;;;;;10326804;28;20201;-84
2022/11/23 19:36:42;;;;;;;36.43;21.77;;;7.90;99.90;;;;;;10327894;28;20750;-83
2022/11/23 19:41:45;;;;;;;49.83;25.33;;;8.50;99.90;;;;;;10335294;28;20258;-84
2022/11/23 19:46:48;;;;;;;49.83;27.17;;;8.60;99.90;;;;;;10351351;28;20597;-83
2022/11/23 19:51:52;;;;;;;39.17;23.37;;;8.50;99.90;;;;;;10335232;28;20240;-84
2022/11/23 19:56:55;;;;;;;41.63;23.23;;;8.10;99.90;;;;;;10334306;28;20256;-83
2022/11/23 20:01:57;;;;;;;64.73;30.67;;;8.00;99.90;;;;;;10333511;28;20271;-83
2022/11/23 20:06:59;;;;;;;42.13;24.03;;;8.00;99.90;;;;;;10333426;28;20272;-84
2022/11/23 20:12:02;;;;;;;32.93;18.63;;;8.10;99.90;;;;;;10333003;28;20271;-84
2022/11/23 20:17:05;;;;;;;31.33;19.67;;;8.10;99.90;;;;;;10331976;28;20301;-84
2022/11/23 20:22:07;;;;;;;53.77;30.30;;;7.80;99.90;;;;;;10333941;28;20240;-84
2022/11/23 20:27:10;;;;;;;44.97;25.60;;;8.20;99.90;;;;;;10332438;28;20204;-84
2022/11/23 20:32:12;;;;;;;55.53;26.63;;;8.20;99.90;;;;;;10333499;28;20196;-84
2022/11/23 20:37:15;;;;;;;62.13;32.33;;;8.10;99.90;;;;;;10332479;28;20252;-83
2022/11/23 20:42:18;;;;;;;46.87;26.10;;;8.20;99.90;;;;;;10331706;28;20648;-83
2022/11/23 20:47:21;;;;;;;47.67;25.97;;;8.00;99.90;;;;;;10331853;28;20233;-83
2022/11/23 20:52:23;;;;;;;53.87;28.00;;;8.00;99.90;;;;;;10332835;28;20647;-83
2022/11/23 20:57:26;;;;;;;47.20;26.00;;;8.40;99.90;;;;;;10331189;28;20254;-83
2022/11/23 21:02:28;;;;;;;60.47;31.40;;;8.40;99.90;;;;;;10314533;28;20632;-84
2022/11/23 21:07:31;;;;;;;52.67;27.53;;;8.60;99.90;;;;;;10330697;28;20335;-84
2022/11/23 21:17:54;;;;;;;65.13;32.43;;;8.30;99.90;;;;;;10329352;28;20675;-83
2022/11/23 21:22:57;;;;;;;44.97;24.70;;;8.00;99.90;;;;;;10331378;28;20294;-84
2022/11/23 21:28:02;;;;;;;56.07;29.17;;;7.70;99.90;;;;;;10314134;28;20240;-83
2022/11/23 21:33:04;;;;;;;46.03;23.97;;;8.40;99.90;;;;;;10331436;28;20233;-83
2022/11/23 21:38:06;;;;;;;48.50;24.73;;;8.70;99.90;;;;;;10331552;28;20314;-83
2022/11/23 21:43:10;;;;;;;54.50;29.00;;;8.60;99.90;;;;;;10328550;28;20263;-83
2022/11/23 21:48:12;;;;;;;46.63;25.27;;;8.50;99.90;;;;;;10330455;28;20634;-83
2022/11/23 21:53:15;;;;;;;50.03;24.83;;;8.70;99.90;;;;;;10330530;28;20306;-84
2022/11/23 21:58:17;;;;;;;58.87;31.20;;;8.50;99.90;;;;;;10328611;28;20249;-83
2022/11/23 22:03:20;;;;;;;57.87;30.10;;;8.70;99.90;;;;;;10330166;28;20629;-83
2022/11/23 22:08:23;;;;;;;49.80;28.10;;;8.10;99.90;;;;;;10312288;28;20213;-83
2022/11/23 22:13:30;;;;;;;74.10;39.27;;;8.20;99.90;;;;;;10329547;28;20236;-83
2022/11/23 22:18:38;;;;;;;46.67;24.73;;;8.50;99.90;;;;;;10328851;28;20291;-83
2022/11/23 22:23:40;;;;;;;40.17;23.30;;;8.50;99.90;;;;;;10327617;28;20255;-83
2022/11/23 22:28:45;;;;;;;36.40;20.27;;;8.90;99.90;;;;;;10328838;28;20303;-83
2022/11/23 22:33:49;;;;;;;62.47;34.57;;;9.20;99.90;;;;;;10326703;28;20247;-83
2022/11/23 22:39:03;;;;;;;49.33;26.27;;;8.70;99.90;;;;;;10326776;28;20251;-83
2022/11/23 22:44:07;;;;;;;76.53;37.17;;;8.50;99.90;;;;;;10328510;28;20683;-83
2022/11/23 22:49:11;;;;;;;48.00;25.73;;;8.60;99.90;;;;;;10326295;28;20211;-84
2022/11/23 22:54:13;;;;;;;55.70;28.80;;;8.30;99.90;;;;;;10327384;28;20257;-83
2022/11/23 22:59:16;;;;;;;60.53;32.40;;;7.80;99.90;;;;;;10327872;28;20259;-83
2022/11/23 23:04:18;;;;;;;70.47;36.20;;;8.20;99.90;;;;;;10327459;28;20240;-83
2022/11/23 23:09:21;;;;;;;52.57;28.43;;;8.00;99.90;;;;;;10326245;28;20235;-83
2022/11/23 23:14:23;;;;;;;59.23;30.87;;;7.90;99.90;;;;;;10326825;28;20240;-83
2022/11/23 23:19:25;;;;;;;49.80;24.37;;;8.00;99.90;;;;;;10327510;28;20661;-83
2022/11/23 23:24:28;;;;;;;70.13;35.97;;;8.40;99.90;;;;;;10327355;28;20267;-83
2022/11/23 23:29:30;;;;;;;61.97;35.33;;;8.30;99.90;;;;;;10327343;28;20236;-84
2022/11/23 23:34:33;;;;;;;55.63;27.67;;;8.40;99.90;;;;;;10327206;28;20699;-83
2022/11/23 23:39:36;;;;;;;73.30;34.93;;;8.50;99.90;;;;;;10325807;28;20296;-83
2022/11/23 23:44:38;;;;;;;61.83;29.97;;;8.30;99.90;;;;;;10309608;28;20208;-83
2022/11/23 23:49:41;;;;;;;52.07;27.17;;;8.40;99.90;;;;;;10325388;28;20215;-83
2022/11/23 23:54:43;;;;;;;65.63;32.97;;;8.30;99.90;;;;;;10326740;28;20686;-83
2022/11/23 23:59:45;;;;;;;39.33;19.43;;;7.80;99.90;;;;;;10326693;28;20228;-83
